Hargill, Texas
Current Conditions -  °F | °C
As of 12:15 AM on Monday 26 Jan 2015 (Local Time) from KEBG Reporting Station
Clear Clear  
Wind Chill: 53°   Ceiling: Unl
Heat Index: 53°   Visibility: 10mi
Dew Point: 40°   Wind: 5mph
Humidity: 63%   Direction: 310°NW
Pressure: 30.23"   Gusts: NA
Location:  26.44°N, 98.01°W
Report Text: KEBG 260615Z AUTO 31004KT 10SM CLR 12/05 A3023 RMK AO2 T01150047
Loading
Personal Weather Stations






























Interactive Weather Map New forecast layout! Learn more

10-Day Weather Forecast

Advertisements
Track Severe Weather on mobile